Time;durP1;ratioP1;P1;durP2;ratioP2;P2;SDS_P1;SDS_P2;PMS_P1;PMS_P2;Temp;Humidity;BMP_temperature;BMP_pressure;BME280_temperature;BME280_humidity;BME280_pressure;Samples;Min_cycle;Max_cycle;Signal;HPM_P1;HPM_P2
2022/01/16 00:04:06;;;;;;;;;;;21.80;48.80;;;;;;5078652;28;20380;-71
2022/01/16 00:06:42;;;;;;;;;;;21.80;48.80;;;;;;5078042;28;19920;-71
2022/01/16 00:09:08;;;;;;;;;;;21.80;48.80;;;;;;5077839;28;20431;-69
2022/01/16 00:11:35;;;;;;;;;;;21.80;48.80;;;;;;5078499;28;19924;-71
2022/01/16 00:14:02;;;;;;;;;;;21.80;48.80;;;;;;5082259;28;20283;-69
2022/01/16 00:16:28;;;;;;;;;;;21.80;48.80;;;;;;5080563;28;19920;-71
2022/01/16 00:18:54;;;;;;;;;;;21.80;48.80;;;;;;5077588;28;19997;-71
2022/01/16 00:21:21;;;;;;;;;;;21.70;48.70;;;;;;5082802;28;20045;-70
2022/01/16 00:23:47;;;;;;;;;;;21.70;48.70;;;;;;5084885;28;19955;-70
2022/01/16 00:26:13;;;;;;;;;;;21.70;48.70;;;;;;5083397;28;19916;-69
2022/01/16 00:28:39;;;;;;;;;;;21.70;48.70;;;;;;5085076;28;19920;-69
2022/01/16 00:31:04;;;;;;;;;;;21.70;48.60;;;;;;5085931;28;19916;-68
2022/01/16 00:33:30;;;;;;;;;;;21.70;48.60;;;;;;5085753;28;19918;-71
2022/01/16 00:35:55;;;;;;;;;;;21.70;48.60;;;;;;5080692;28;20432;-71
2022/01/16 00:38:21;;;;;;;;;;;21.70;48.60;;;;;;5084427;28;19915;-72
2022/01/16 00:40:46;;;;;;;;;;;21.60;48.60;;;;;;5079483;28;20096;-69
2022/01/16 00:43:13;;;;;;;;;;;21.60;48.60;;;;;;5083534;28;20089;-69
2022/01/16 00:45:39;;;;;;;;;;;21.60;48.60;;;;;;5082366;28;19924;-71
2022/01/16 00:48:05;;;;;;;;;;;21.60;48.60;;;;;;5086262;28;19912;-71
2022/01/16 00:50:31;;;;;;;;;;;21.60;48.60;;;;;;5083783;28;19923;-69
2022/01/16 00:52:57;;;;;;;;;;;21.50;48.50;;;;;;5082723;28;19916;-71
2022/01/16 00:55:23;;;;;;;;;;;21.60;48.70;;;;;;5080167;28;20017;-71
2022/01/16 00:57:48;;;;;;;;;;;21.60;48.60;;;;;;5081364;28;20366;-69
2022/01/16 01:00:14;;;;;;;;;;;21.50;48.60;;;;;;5081470;28;19916;-69
2022/01/16 01:02:40;;;;;;;;;;;21.50;48.60;;;;;;5084262;28;19971;-68
2022/01/16 01:05:07;;;;;;;;;;;21.50;48.60;;;;;;5084492;28;20450;-71
2022/01/16 01:07:33;;;;;;;;;;;21.50;48.60;;;;;;5084939;28;19916;-68
2022/01/16 01:09:58;;;;;;;;;;;21.40;48.50;;;;;;5082801;28;19962;-69
2022/01/16 01:12:28;;;;;;;;;;;21.50;48.60;;;;;;5081482;28;19973;-68
2022/01/16 01:15:08;;;;;;;;;;;21.40;48.50;;;;;;5083705;28;20261;-68
2022/01/16 01:17:42;;;;;;;;;;;21.40;48.70;;;;;;5084644;28;20276;-71
2022/01/16 01:20:08;;;;;;;;;;;21.40;48.60;;;;;;5082529;28;20338;-71
2022/01/16 01:22:33;;;;;;;;;;;21.40;48.60;;;;;;5083843;28;19922;-71
2022/01/16 01:24:59;;;;;;;;;;;21.40;48.60;;;;;;5080481;28;19932;-71
2022/01/16 01:27:29;;;;;;;;;;;21.40;48.60;;;;;;5083382;28;19912;-72
2022/01/16 01:29:59;;;;;;;;;;;21.30;48.50;;;;;;5088201;28;19954;-69
2022/01/16 01:32:25;;;;;;;;;;;21.30;48.50;;;;;;5088848;28;19957;-72
2022/01/16 01:34:50;;;;;;;;;;;21.40;48.60;;;;;;5086352;28;19916;-70
2022/01/16 01:37:16;;;;;;;;;;;21.40;48.60;;;;;;5087979;28;19949;-69
2022/01/16 01:39:41;;;;;;;;;;;21.30;48.60;;;;;;5088414;28;19926;-72
2022/01/16 01:42:10;;;;;;;;;;;21.30;48.60;;;;;;5087401;28;19959;-69
2022/01/16 01:52:50;;;;;;;;;;;21.30;48.70;;;;;;5089361;28;19934;-71
2022/01/16 01:55:16;;;;;;;;;;;21.30;48.70;;;;;;5080520;28;19915;-71
2022/01/16 01:57:42;;;;;;;;;;;21.20;48.70;;;;;;5085110;28;19920;-71
2022/01/16 02:00:07;;;;;;;;;;;21.20;48.70;;;;;;5088399;28;20421;-69
2022/01/16 02:02:45;;;;;;;;;;;21.20;48.70;;;;;;5087063;28;19977;-68
2022/01/16 02:05:10;;;;;;;;;;;21.20;48.70;;;;;;5084148;28;19920;-69
2022/01/16 02:07:36;;;;;;;;;;;21.20;48.70;;;;;;5088247;28;19916;-71
2022/01/16 02:10:03;;;;;;;;;;;21.20;48.70;;;;;;5084610;28;19951;-69
2022/01/16 02:12:30;;;;;;;;;;;21.20;48.70;;;;;;5087998;28;19923;-70
2022/01/16 02:15:04;;;;;;;;;;;21.20;48.70;;;;;;5088446;28;19912;-71
2022/01/16 02:36:14;;;;;;;;;;;21.10;48.80;;;;;;5086901;28;20010;-71
2022/01/16 02:38:39;;;;;;;;;;;21.10;48.80;;;;;;5085247;28;19963;-68
2022/01/16 02:41:05;;;;;;;;;;;21.00;48.80;;;;;;5087429;28;19958;-72
2022/01/16 02:43:34;;;;;;;;;;;21.00;48.70;;;;;;5083696;28;19955;-70
2022/01/16 02:46:35;;;;;;;;;;;21.00;48.80;;;;;;5088543;28;19916;-68
2022/01/16 02:48:55;;;;;;;;;;;21.00;48.80;;;;;;5086419;28;19998;-68
2022/01/16 02:51:23;;;;;;;;;;;21.00;48.80;;;;;;5088372;28;20011;-72
2022/01/16 02:53:49;;;;;;;;;;;21.00;48.80;;;;;;5085968;28;19923;-69
2022/01/16 02:56:16;;;;;;;;;;;21.00;48.80;;;;;;5083800;28;19912;-72
2022/01/16 02:58:42;;;;;;;;;;;21.00;48.90;;;;;;5083882;28;19931;-71
2022/01/16 03:01:07;;;;;;;;;;;21.00;48.90;;;;;;5086730;28;20335;-69
2022/01/16 03:03:33;;;;;;;;;;;21.00;48.90;;;;;;5085507;28;19923;-70
2022/01/16 03:05:58;;;;;;;;;;;20.90;48.80;;;;;;5086792;28;19926;-68
2022/01/16 03:08:24;;;;;;;;;;;21.00;48.90;;;;;;5085690;28;19959;-72
2022/01/16 03:13:33;;;;;;;;;;;20.90;48.90;;;;;;5086416;28;20034;-71
2022/01/16 03:15:59;;;;;;;;;;;20.90;48.90;;;;;;5086657;28;19928;-69
2022/01/16 03:23:34;;;;;;;;;;;20.90;48.90;;;;;;5085432;28;19947;-71
2022/01/16 03:26:00;;;;;;;;;;;20.90;49.00;;;;;;5086500;28;19916;-72
2022/01/16 03:28:26;;;;;;;;;;;20.90;49.00;;;;;;5082106;28;20423;-70
2022/01/16 03:30:53;;;;;;;;;;;20.90;49.00;;;;;;5083210;28;19931;-70
2022/01/16 03:33:20;;;;;;;;;;;20.90;49.00;;;;;;5087226;28;19966;-72
2022/01/16 03:35:46;;;;;;;;;;;20.80;48.90;;;;;;5084648;28;19913;-69
2022/01/16 03:38:11;;;;;;;;;;;20.80;49.00;;;;;;5083447;28;19969;-68
2022/01/16 03:40:37;;;;;;;;;;;20.80;49.00;;;;;;5081344;28;19958;-72
2022/01/16 03:43:13;;;;;;;;;;;20.80;49.00;;;;;;5080733;28;20002;-68
2022/01/16 03:45:40;;;;;;;;;;;20.80;49.00;;;;;;5087745;28;19982;-72
2022/01/16 03:48:06;;;;;;;;;;;20.80;49.10;;;;;;5087334;28;19924;-72
2022/01/16 03:50:31;;;;;;;;;;;20.80;49.10;;;;;;5084607;28;19912;-70
2022/01/16 03:52:57;;;;;;;;;;;20.80;49.10;;;;;;5083156;28;19916;-71
2022/01/16 03:55:22;;;;;;;;;;;20.80;49.10;;;;;;5082085;28;19916;-71
2022/01/16 03:57:48;;;;;;;;;;;20.80;49.10;;;;;;5086127;28;19908;-72
2022/01/16 04:00:13;;;;;;;;;;;20.80;49.10;;;;;;5086862;28;20244;-70
2022/01/16 04:02:39;;;;;;;;;;;20.80;49.20;;;;;;5084598;28;20007;-69
2022/01/16 04:05:04;;;;;;;;;;;20.80;49.20;;;;;;5080651;28;19916;-69
2022/01/16 04:07:35;;;;;;;;;;;20.80;49.20;;;;;;5085278;28;19915;-68
2022/01/16 04:10:02;;;;;;;;;;;20.70;49.20;;;;;;5085754;28;20367;-72
2022/01/16 04:12:28;;;;;;;;;;;20.70;49.20;;;;;;5084075;28;19946;-71
2022/01/16 04:17:20;;;;;;;;;;;20.70;49.20;;;;;;5082450;28;19939;-68
2022/01/16 04:19:46;;;;;;;;;;;20.70;49.20;;;;;;5086956;28;20454;-72
2022/01/16 04:22:12;;;;;;;;;;;20.70;49.20;;;;;;5085532;28;20274;-71
2022/01/16 04:24:37;;;;;;;;;;;20.70;49.20;;;;;;5079195;28;19916;-71
2022/01/16 04:27:03;;;;;;;;;;;20.70;49.20;;;;;;5081812;28;19920;-69
2022/01/16 04:29:29;;;;;;;;;;;20.70;49.20;;;;;;5084143;28;19920;-72
2022/01/16 04:31:55;;;;;;;;;;;20.70;49.80;;;;;;5082031;28;20331;-72
2022/01/16 04:34:20;;;;;;;;;;;20.70;49.30;;;;;;5081956;28;19912;-68
2022/01/16 04:36:46;;;;;;;;;;;20.70;49.30;;;;;;5084975;28;19923;-71
2022/01/16 04:39:20;;;;;;;;;;;20.70;49.30;;;;;;5082579;28;19924;-68
2022/01/16 04:44:30;;;;;;;;;;;20.70;49.30;;;;;;5082959;28;19970;-68
2022/01/16 04:46:56;;;;;;;;;;;20.70;49.40;;;;;;5081122;28;20330;-68
2022/01/16 04:49:21;;;;;;;;;;;20.70;49.40;;;;;;5083832;28;19965;-67
2022/01/16 04:51:47;;;;;;;;;;;20.60;49.40;;;;;;5082667;28;20051;-69
2022/01/16 04:54:13;;;;;;;;;;;20.60;49.40;;;;;;5079904;28;19924;-72
2022/01/16 04:56:39;;;;;;;;;;;20.60;49.40;;;;;;5084106;28;19912;-69
2022/01/16 04:59:04;;;;;;;;;;;20.60;49.40;;;;;;5078514;28;20003;-71
2022/01/16 05:01:30;;;;;;;;;;;20.60;49.50;;;;;;5083826;28;19912;-69
2022/01/16 05:03:56;;;;;;;;;;;20.60;49.50;;;;;;5085013;28;20405;-71
2022/01/16 05:06:21;;;;;;;;;;;20.60;49.50;;;;;;5085724;28;19912;-71
2022/01/16 05:08:47;;;;;;;;;;;20.60;49.50;;;;;;5084461;28;19927;-72
2022/01/16 05:11:15;;;;;;;;;;;20.60;49.60;;;;;;5083763;28;19994;-71
2022/01/16 05:18:51;;;;;;;;;;;20.50;49.60;;;;;;5084977;28;19930;-72
2022/01/16 05:21:16;;;;;;;;;;;20.50;49.60;;;;;;5081882;28;19920;-69
2022/01/16 05:23:42;;;;;;;;;;;20.50;49.60;;;;;;5084749;28;20001;-69
2022/01/16 05:26:08;;;;;;;;;;;20.50;49.70;;;;;;5083178;28;19913;-71
2022/01/16 05:28:34;;;;;;;;;;;20.50;49.70;;;;;;5083659;28;19935;-71
2022/01/16 05:31:00;;;;;;;;;;;20.50;49.70;;;;;;5085423;28;19962;-71
2022/01/16 05:33:26;;;;;;;;;;;20.50;49.70;;;;;;5086438;28;19919;-68
2022/01/16 05:35:51;;;;;;;;;;;20.50;49.70;;;;;;5082996;28;19916;-68
2022/01/16 05:38:17;;;;;;;;;;;20.50;49.70;;;;;;5083259;28;19990;-69
2022/01/16 05:40:43;;;;;;;;;;;20.50;49.70;;;;;;5079700;28;20276;-71
2022/01/16 05:43:09;;;;;;;;;;;20.50;49.70;;;;;;5078503;28;19958;-69
2022/01/16 05:45:34;;;;;;;;;;;20.50;49.80;;;;;;5080714;28;19947;-69
2022/01/16 05:48:00;;;;;;;;;;;20.50;49.80;;;;;;5082770;28;20013;-68
2022/01/16 05:50:25;;;;;;;;;;;20.50;49.80;;;;;;5082132;28;19963;-71
2022/01/16 05:52:51;;;;;;;;;;;20.40;49.80;;;;;;5084337;28;19919;-68
2022/01/16 05:55:17;;;;;;;;;;;20.40;49.80;;;;;;5082281;28;19923;-71
2022/01/16 05:57:43;;;;;;;;;;;20.40;49.80;;;;;;5083400;28;19984;-70
2022/01/16 06:00:09;;;;;;;;;;;20.40;49.80;;;;;;5084347;28;20263;-69
2022/01/16 06:02:35;;;;;;;;;;;20.40;49.80;;;;;;5082210;28;20046;-69
2022/01/16 06:05:01;;;;;;;;;;;20.40;49.80;;;;;;5084607;28;20108;-71
2022/01/16 06:07:26;;;;;;;;;;;20.40;49.80;;;;;;5083572;28;20035;-71
2022/01/16 06:09:55;;;;;;;;;;;20.40;49.80;;;;;;5079078;28;19928;-71
2022/01/16 06:12:20;;;;;;;;;;;20.40;49.80;;;;;;5083581;28;19912;-71
2022/01/16 06:14:46;;;;;;;;;;;20.40;49.80;;;;;;5085082;28;21960;-71
2022/01/16 06:17:11;;;;;;;;;;;20.40;49.90;;;;;;5085020;28;20022;-71
2022/01/16 06:19:37;;;;;;;;;;;20.40;49.90;;;;;;5087548;28;20414;-71
2022/01/16 06:22:03;;;;;;;;;;;20.40;49.90;;;;;;5088178;28;19926;-69
2022/01/16 06:24:28;;;;;;;;;;;20.40;49.90;;;;;;5085331;28;19920;-68
2022/01/16 06:26:54;;;;;;;;;;;20.40;49.90;;;;;;5083694;28;19912;-68
2022/01/16 06:29:19;;;;;;;;;;;20.40;49.90;;;;;;5084615;28;19919;-68
2022/01/16 06:31:45;;;;;;;;;;;20.40;49.90;;;;;;5083973;28;20455;-69
2022/01/16 06:34:11;;;;;;;;;;;20.30;49.90;;;;;;5079010;28;20010;-68
2022/01/16 06:36:37;;;;;;;;;;;20.40;49.90;;;;;;5080785;28;19923;-69
2022/01/16 06:39:03;;;;;;;;;;;20.30;49.90;;;;;;5082168;28;19924;-69
2022/01/16 06:41:29;;;;;;;;;;;20.30;49.90;;;;;;5077016;28;20023;-70
2022/01/16 06:43:54;;;;;;;;;;;20.30;49.90;;;;;;5088726;28;20003;-71
2022/01/16 06:46:20;;;;;;;;;;;20.30;49.90;;;;;;5083628;28;19970;-71
2022/01/16 06:48:46;;;;;;;;;;;20.30;49.90;;;;;;5084734;28;20554;-69
2022/01/16 06:51:11;;;;;;;;;;;20.30;49.90;;;;;;5085178;28;20010;-69
2022/01/16 06:53:37;;;;;;;;;;;20.30;50.00;;;;;;5087428;28;20302;-71
2022/01/16 06:56:02;;;;;;;;;;;20.30;49.90;;;;;;5087765;28;19943;-71
2022/01/16 06:58:28;;;;;;;;;;;20.30;50.00;;;;;;5086613;28;19912;-68
2022/01/16 07:00:53;;;;;;;;;;;20.30;50.00;;;;;;5082694;28;19948;-68
2022/01/16 07:03:19;;;;;;;;;;;20.30;50.00;;;;;;5087045;28;19920;-68
2022/01/16 07:05:45;;;;;;;;;;;20.30;50.00;;;;;;5086036;28;19989;-68
2022/01/16 07:08:11;;;;;;;;;;;20.30;50.00;;;;;;5086626;28;20331;-68
2022/01/16 07:10:36;;;;;;;;;;;20.30;50.00;;;;;;5085884;28;19913;-69
2022/01/16 07:13:02;;;;;;;;;;;20.30;50.00;;;;;;5084698;28;19973;-69
2022/01/16 07:15:27;;;;;;;;;;;20.30;50.00;;;;;;5083667;28;19919;-71
2022/01/16 07:17:53;;;;;;;;;;;20.30;50.10;;;;;;5086441;28;19969;-71
2022/01/16 07:20:18;;;;;;;;;;;20.30;50.10;;;;;;5084849;28;20415;-69
2022/01/16 07:22:44;;;;;;;;;;;20.30;50.10;;;;;;5087164;28;19974;-68
2022/01/16 07:25:10;;;;;;;;;;;20.30;50.10;;;;;;5083274;28;20051;-68
2022/01/16 07:27:36;;;;;;;;;;;20.30;50.10;;;;;;5082115;28;20374;-68
2022/01/16 07:30:01;;;;;;;;;;;20.30;50.10;;;;;;5081581;28;20010;-68
2022/01/16 07:32:27;;;;;;;;;;;20.30;50.20;;;;;;5082137;28;20056;-69
2022/01/16 07:34:53;;;;;;;;;;;20.30;50.10;;;;;;5085679;28;19912;-68
2022/01/16 07:37:18;;;;;;;;;;;20.30;50.10;;;;;;5087543;28;19995;-70
2022/01/16 07:39:44;;;;;;;;;;;20.30;50.10;;;;;;5084943;28;19920;-68
2022/01/16 07:42:09;;;;;;;;;;;20.30;50.10;;;;;;5082509;28;20333;-71
2022/01/16 07:44:35;;;;;;;;;;;20.30;50.10;;;;;;5085468;28;19973;-71
2022/01/16 07:47:00;;;;;;;;;;;20.30;50.10;;;;;;5079521;28;19912;-70
2022/01/16 07:49:26;;;;;;;;;;;20.30;50.10;;;;;;5085645;28;19973;-70
2022/01/16 07:51:51;;;;;;;;;;;20.30;50.10;;;;;;5085987;28;19920;-71
2022/01/16 07:54:18;;;;;;;;;;;20.30;50.10;;;;;;5082470;28;19981;-70
2022/01/16 07:56:44;;;;;;;;;;;20.30;50.20;;;;;;5082881;28;19926;-70
2022/01/16 07:59:10;;;;;;;;;;;20.20;50.10;;;;;;5087522;28;20385;-71
2022/01/16 08:01:35;;;;;;;;;;;20.30;50.20;;;;;;5083820;28;19912;-71
2022/01/16 08:04:01;;;;;;;;;;;20.20;50.10;;;;;;5087084;28;19989;-69
2022/01/16 08:06:26;;;;;;;;;;;20.30;50.20;;;;;;5088161;28;20731;-71
2022/01/16 08:08:52;;;;;;;;;;;20.30;50.20;;;;;;5086515;28;20037;-71
2022/01/16 08:11:17;;;;;;;;;;;20.20;50.10;;;;;;5078669;28;19923;-68
2022/01/16 08:13:43;;;;;;;;;;;20.30;50.20;;;;;;5080436;28;20272;-69
2022/01/16 08:16:08;;;;;;;;;;;20.20;50.20;;;;;;5084182;28;19917;-68
2022/01/16 08:18:34;;;;;;;;;;;20.20;50.20;;;;;;5081453;28;20011;-68
2022/01/16 08:21:00;;;;;;;;;;;20.20;50.20;;;;;;5084040;28;19977;-71
2022/01/16 08:23:26;;;;;;;;;;;20.20;50.20;;;;;;5086077;28;19920;-68
2022/01/16 08:25:51;;;;;;;;;;;20.20;50.10;;;;;;5084948;28;19931;-71
2022/01/16 08:28:17;;;;;;;;;;;20.20;50.10;;;;;;5086945;28;20429;-68
2022/01/16 08:30:43;;;;;;;;;;;20.20;50.10;;;;;;5083708;28;19973;-71
2022/01/16 08:33:09;;;;;;;;;;;20.20;50.10;;;;;;5079795;28;20318;-69
2022/01/16 08:35:34;;;;;;;;;;;20.20;50.20;;;;;;5085799;28;19912;-71
2022/01/16 08:38:00;;;;;;;;;;;20.20;50.20;;;;;;5084982;28;19919;-69
2022/01/16 08:40:26;;;;;;;;;;;20.20;50.10;;;;;;5082067;28;20320;-71
2022/01/16 08:42:51;;;;;;;;;;;20.20;50.10;;;;;;5083719;28;20441;-71
2022/01/16 08:45:17;;;;;;;;;;;20.20;50.10;;;;;;5083188;28;19931;-68
2022/01/16 08:47:43;;;;;;;;;;;20.20;50.10;;;;;;5086651;28;19937;-71
2022/01/16 08:50:09;;;;;;;;;;;20.20;50.10;;;;;;5078637;28;19976;-69
2022/01/16 08:52:41;;;;;;;;;;;20.20;50.20;;;;;;5080196;28;20061;-71
2022/01/16 08:55:08;;;;;;;;;;;20.20;50.10;;;;;;5078804;28;19999;-71
2022/01/16 08:57:34;;;;;;;;;;;20.20;50.10;;;;;;5077556;28;19919;-71
2022/01/16 08:59:59;;;;;;;;;;;20.20;50.20;;;;;;5080691;28;20389;-68
2022/01/16 09:02:25;;;;;;;;;;;20.20;50.20;;;;;;5078141;28;19916;-69
2022/01/16 09:04:50;;;;;;;;;;;20.20;50.20;;;;;;5080649;28;19916;-72
2022/01/16 09:07:17;;;;;;;;;;;20.20;50.20;;;;;;5082331;28;19955;-69
2022/01/16 09:09:43;;;;;;;;;;;20.20;50.20;;;;;;5078912;28;19920;-68
2022/01/16 09:12:08;;;;;;;;;;;20.10;50.10;;;;;;5082171;28;19935;-70
2022/01/16 09:14:34;;;;;;;;;;;20.20;50.20;;;;;;5079989;28;19912;-71
2022/01/16 09:16:59;;;;;;;;;;;20.20;50.20;;;;;;5081738;28;19927;-71
2022/01/16 09:19:26;;;;;;;;;;;20.20;50.20;;;;;;5082437;28;19974;-69
2022/01/16 09:21:52;;;;;;;;;;;20.10;50.20;;;;;;5078485;28;20014;-71
2022/01/16 09:24:17;;;;;;;;;;;20.20;50.30;;;;;;5077038;28;20007;-71
2022/01/16 09:26:43;;;;;;;;;;;20.20;50.30;;;;;;5078921;28;19923;-69
2022/01/16 09:29:08;;;;;;;;;;;20.10;50.20;;;;;;5078487;28;20766;-71
2022/01/16 09:31:34;;;;;;;;;;;20.10;50.20;;;;;;5080562;28;20354;-69
2022/01/16 09:34:00;;;;;;;;;;;20.10;50.20;;;;;;5078701;28;20450;-69
2022/01/16 09:36:26;;;;;;;;;;;20.20;50.30;;;;;;5083170;28;19916;-69
2022/01/16 09:38:52;;;;;;;;;;;20.20;50.30;;;;;;5078777;28;20002;-68
2022/01/16 09:41:17;;;;;;;;;;;20.10;50.30;;;;;;5078116;28;19916;-71
2022/01/16 09:43:43;;;;;;;;;;;20.20;50.30;;;;;;5079653;28;19973;-69
2022/01/16 09:46:09;;;;;;;;;;;20.10;50.30;;;;;;5081472;28;20014;-71
2022/01/16 09:48:34;;;;;;;;;;;20.10;50.30;;;;;;5081313;28;20455;-71
2022/01/16 09:51:00;;;;;;;;;;;20.10;50.30;;;;;;5082958;28;19920;-72
2022/01/16 09:53:26;;;;;;;;;;;20.10;50.30;;;;;;5081619;28;19974;-68
2022/01/16 09:55:52;;;;;;;;;;;20.10;50.30;;;;;;5083860;28;20014;-70
2022/01/16 09:58:19;;;;;;;;;;;20.10;50.30;;;;;;5083999;28;20427;-68
2022/01/16 10:00:44;;;;;;;;;;;20.10;50.30;;;;;;5083274;28;19916;-69
2022/01/16 10:03:30;;;;;;;;;;;20.10;50.30;;;;;;5083900;28;20314;-69
2022/01/16 10:06:05;;;;;;;;;;;20.10;50.30;;;;;;5081060;28;19927;-68
2022/01/16 10:08:31;;;;;;;;;;;20.10;50.40;;;;;;5083157;28;20629;-67
2022/01/16 10:10:58;;;;;;;;;;;20.10;50.30;;;;;;5080235;28;19926;-69
2022/01/16 10:13:32;;;;;;;;;;;20.10;50.40;;;;;;5079766;28;19916;-69
2022/01/16 10:15:58;;;;;;;;;;;20.10;50.40;;;;;;5083771;28;19985;-71
2022/01/16 10:18:39;;;;;;;;;;;20.10;50.40;;;;;;5084637;28;19938;-70
2022/01/16 10:21:06;;;;;;;;;;;20.10;50.40;;;;;;5082713;28;19935;-69
2022/01/16 10:23:37;;;;;;;;;;;20.10;50.40;;;;;;5080553;28;20007;-67
2022/01/16 10:26:03;;;;;;;;;;;20.10;50.40;;;;;;5083832;28;19920;-68
2022/01/16 10:28:28;;;;;;;;;;;20.10;50.40;;;;;;5081049;28;19916;-70
2022/01/16 10:30:56;;;;;;;;;;;20.10;50.40;;;;;;5082985;28;20321;-69
2022/01/16 10:33:23;;;;;;;;;;;20.10;50.50;;;;;;5083275;28;19997;-68
2022/01/16 10:35:50;;;;;;;;;;;20.10;50.50;;;;;;5081487;28;19916;-69
2022/01/16 10:38:17;;;;;;;;;;;20.10;50.60;;;;;;5080845;28;19922;-69
2022/01/16 10:40:50;;;;;;;;;;;20.10;50.60;;;;;;5080209;28;19916;-68
2022/01/16 10:43:16;;;;;;;;;;;20.10;50.60;;;;;;5083472;28;20018;-70
2022/01/16 10:45:43;;;;;;;;;;;20.10;50.70;;;;;;5086571;28;20433;-70
2022/01/16 10:48:09;;;;;;;;;;;20.10;50.70;;;;;;5083066;28;19928;-70
2022/01/16 10:50:36;;;;;;;;;;;20.10;50.80;;;;;;5082199;28;20057;-67
2022/01/16 10:53:02;;;;;;;;;;;20.10;50.90;;;;;;5083877;28;20365;-70
2022/01/16 10:55:38;;;;;;;;;;;20.10;50.90;;;;;;5081612;28;19928;-69
2022/01/16 10:58:24;;;;;;;;;;;20.10;51.00;;;;;;5080457;28;20403;-68
2022/01/16 11:00:52;;;;;;;;;;;20.10;51.00;;;;;;5077476;28;20688;-69
2022/01/16 11:03:18;;;;;;;;;;;20.10;51.10;;;;;;5081925;28;20527;-68
2022/01/16 11:05:44;;;;;;;;;;;20.10;51.40;;;;;;5077940;28;19931;-71
2022/01/16 11:08:12;;;;;;;;;;;20.10;51.80;;;;;;5080535;28;20218;-69
2022/01/16 11:10:41;;;;;;;;;;;20.20;52.60;;;;;;5079630;28;19920;-70
2022/01/16 11:13:12;;;;;;;;;;;20.10;53.10;;;;;;5079160;28;20368;-68
2022/01/16 11:15:39;;;;;;;;;;;20.20;54.50;;;;;;5081398;28;19923;-70
2022/01/16 11:18:05;;;;;;;;;;;20.20;55.20;;;;;;5080538;28;19916;-71
2022/01/16 11:20:34;;;;;;;;;;;20.20;55.30;;;;;;5077907;28;19989;-70
2022/01/16 11:23:06;;;;;;;;;;;20.20;54.20;;;;;;5082992;28;19924;-68
2022/01/16 11:25:34;;;;;;;;;;;20.20;53.80;;;;;;5075989;28;19994;-69
2022/01/16 11:28:06;;;;;;;;;;;20.10;53.70;;;;;;5081444;28;20415;-71
2022/01/16 11:30:32;;;;;;;;;;;20.20;53.60;;;;;;5081252;28;19916;-68
2022/01/16 11:32:58;;;;;;;;;;;20.20;53.40;;;;;;5084385;28;19922;-69
2022/01/16 11:35:24;;;;;;;;;;;20.10;53.20;;;;;;5077828;28;20471;-70
2022/01/16 11:37:50;;;;;;;;;;;20.20;53.10;;;;;;5082251;28;20854;-67
2022/01/16 11:40:19;;;;;;;;;;;20.20;53.00;;;;;;5073328;28;19952;-68
2022/01/16 11:42:44;;;;;;;;;;;20.20;52.90;;;;;;5075735;28;20750;-70
2022/01/16 11:45:10;;;;;;;;;;;20.20;52.80;;;;;;5080481;28;19920;-70
2022/01/16 11:47:35;;;;;;;;;;;20.20;52.70;;;;;;5082962;28;19913;-68
2022/01/16 11:50:07;;;;;;;;;;;20.20;52.70;;;;;;5077609;28;19916;-70
2022/01/16 11:52:38;;;;;;;;;;;20.20;52.80;;;;;;5081181;28;20471;-71
2022/01/16 11:55:08;;;;;;;;;;;20.20;52.70;;;;;;5091168;28;19912;-71
2022/01/16 11:57:35;;;;;;;;;;;20.20;52.70;;;;;;5079784;28;20015;-68
2022/01/16 12:00:08;;;;;;;;;;;20.20;52.70;;;;;;5078666;28;19936;-70
2022/01/16 12:02:38;;;;;;;;;;;20.20;52.60;;;;;;5082033;28;19919;-69
2022/01/16 12:05:04;;;;;;;;;;;20.20;52.60;;;;;;5082776;28;19969;-71
2022/01/16 12:07:36;;;;;;;;;;;20.20;52.60;;;;;;5079846;28;19920;-69
2022/01/16 12:10:05;;;;;;;;;;;20.20;52.60;;;;;;5073384;28;19916;-69
2022/01/16 12:12:31;;;;;;;;;;;20.20;52.60;;;;;;5080620;28;20015;-71
2022/01/16 12:14:57;;;;;;;;;;;20.20;52.50;;;;;;5082310;28;20054;-71
2022/01/16 12:17:32;;;;;;;;;;;20.20;52.50;;;;;;5078174;28;20006;-69
2022/01/16 12:20:13;;;;;;;;;;;20.20;52.50;;;;;;5077920;28;19926;-70
2022/01/16 12:22:46;;;;;;;;;;;20.20;52.50;;;;;;5076189;28;19917;-70
2022/01/16 12:25:31;;;;;;;;;;;20.20;52.50;;;;;;5073240;28;20015;-69
2022/01/16 12:27:56;;;;;;;;;;;20.20;52.60;;;;;;5077024;28;19923;-68
2022/01/16 12:30:27;;;;;;;;;;;20.20;52.50;;;;;;5079075;28;19916;-71
2022/01/16 12:33:00;;;;;;;;;;;20.20;53.00;;;;;;5080748;28;19957;-70
2022/01/16 12:35:40;;;;;;;;;;;20.20;52.50;;;;;;5079953;28;19916;-69
2022/01/16 12:38:10;;;;;;;;;;;20.20;52.50;;;;;;5080234;28;19927;-71
2022/01/16 12:40:38;;;;;;;;;;;20.20;52.40;;;;;;5079223;28;19923;-71
2022/01/16 12:43:05;;;;;;;;;;;20.20;52.30;;;;;;5083092;28;19916;-70
2022/01/16 12:45:37;;;;;;;;;;;20.20;52.30;;;;;;5072027;28;20346;-70
2022/01/16 12:48:03;;;;;;;;;;;20.20;52.80;;;;;;5070945;28;20383;-71
2022/01/16 12:50:29;;;;;;;;;;;20.20;52.20;;;;;;5077605;28;19915;-71
2022/01/16 12:52:54;;;;;;;;;;;20.10;52.00;;;;;;5078337;28;19912;-70
2022/01/16 12:55:25;;;;;;;;;;;20.10;51.80;;;;;;5080046;28;20295;-69
2022/01/16 12:57:50;;;;;;;;;;;20.10;51.70;;;;;;5076402;28;20337;-70
2022/01/16 13:00:16;;;;;;;;;;;20.20;51.60;;;;;;5074635;28;19916;-71
2022/01/16 13:02:42;;;;;;;;;;;20.10;51.40;;;;;;5081040;28;20743;-72
2022/01/16 13:05:07;;;;;;;;;;;20.20;51.50;;;;;;5081988;28;19915;-71
2022/01/16 13:07:34;;;;;;;;;;;20.20;51.50;;;;;;5076991;28;20361;-69
2022/01/16 13:09:59;;;;;;;;;;;20.20;51.50;;;;;;5076306;28;20046;-70
2022/01/16 13:12:25;;;;;;;;;;;20.20;51.60;;;;;;5074478;28;20471;-69
2022/01/16 13:14:51;;;;;;;;;;;20.30;51.80;;;;;;5075827;28;19916;-70
2022/01/16 13:17:17;;;;;;;;;;;20.30;51.80;;;;;;5073050;28;19922;-68
2022/01/16 13:19:54;;;;;;;;;;;20.40;51.90;;;;;;5074960;28;20332;-69
2022/01/16 13:22:23;;;;;;;;;;;20.40;52.00;;;;;;5073100;28;20052;-69
2022/01/16 13:25:06;;;;;;;;;;;20.40;52.10;;;;;;5077344;28;20381;-70
2022/01/16 13:27:39;;;;;;;;;;;20.50;52.20;;;;;;5079133;28;19955;-69
2022/01/16 13:30:26;;;;;;;;;;;20.50;52.40;;;;;;5079916;28;20051;-72
2022/01/16 13:32:52;;;;;;;;;;;20.60;52.90;;;;;;5078170;28;20329;-68
2022/01/16 13:35:18;;;;;;;;;;;20.50;52.30;;;;;;5080958;28;19920;-69
2022/01/16 13:37:44;;;;;;;;;;;20.60;52.30;;;;;;5081771;28;20605;-69
2022/01/16 13:40:10;;;;;;;;;;;20.60;52.40;;;;;;5072765;28;19942;-69
2022/01/16 13:43:23;;;;;;;;;;;20.50;52.30;;;;;;5078779;28;19986;-69
2022/01/16 13:45:39;;;;;;;;;;;20.60;52.40;;;;;;5063829;28;19971;-70
2022/01/16 13:48:09;;;;;;;;;;;20.50;52.40;;;;;;5076807;28;19916;-69
2022/01/16 13:50:38;;;;;;;;;;;20.50;52.60;;;;;;5079843;28;19916;-69
2022/01/16 13:53:05;;;;;;;;;;;20.50;52.60;;;;;;5077138;28;20021;-70
2022/01/16 13:55:32;;;;;;;;;;;20.50;52.70;;;;;;5079253;28;20366;-71
2022/01/16 13:57:58;;;;;;;;;;;20.50;52.70;;;;;;5081340;28;19928;-69
2022/01/16 14:00:31;;;;;;;;;;;20.50;52.80;;;;;;5077555;28;19972;-68
2022/01/16 14:03:10;;;;;;;;;;;20.50;52.80;;;;;;5075183;28;20078;-71
2022/01/16 14:05:40;;;;;;;;;;;20.50;52.80;;;;;;5079385;28;19920;-69
2022/01/16 14:08:25;;;;;;;;;;;20.50;52.50;;;;;;5080881;28;19926;-68
2022/01/16 14:10:52;;;;;;;;;;;20.50;52.70;;;;;;5081072;28;19920;-69
2022/01/16 14:13:17;;;;;;;;;;;20.60;52.80;;;;;;5082574;28;19916;-69
2022/01/16 14:16:02;;;;;;;;;;;20.60;52.70;;;;;;5079293;28;19927;-69
2022/01/16 14:18:40;;;;;;;;;;;20.60;52.70;;;;;;5083215;28;20109;-69
2022/01/16 14:23:50;;;;;;;;;;;20.60;52.60;;;;;;5082127;28;19924;-70
2022/01/16 14:26:15;;;;;;;;;;;20.60;52.70;;;;;;5076951;28;19912;-71
2022/01/16 14:28:41;;;;;;;;;;;20.60;52.90;;;;;;5076754;28;20010;-69
2022/01/16 14:31:06;;;;;;;;;;;20.70;53.00;;;;;;5078604;28;19919;-71
2022/01/16 14:33:31;;;;;;;;;;;20.70;53.60;;;;;;5076546;28;19916;-71
2022/01/16 14:35:57;;;;;;;;;;;20.70;53.50;;;;;;5079951;28;19922;-69
2022/01/16 14:38:22;;;;;;;;;;;20.70;53.50;;;;;;5079402;28;19927;-69
2022/01/16 14:40:48;;;;;;;;;;;20.70;53.40;;;;;;5077542;28;19962;-68
2022/01/16 14:43:18;;;;;;;;;;;20.80;53.60;;;;;;5069543;28;20564;-68
2022/01/16 14:45:44;;;;;;;;;;;20.80;53.10;;;;;;5064269;28;20140;-70
2022/01/16 14:48:09;;;;;;;;;;;20.80;53.00;;;;;;5067680;28;20382;-69
2022/01/16 14:50:35;;;;;;;;;;;20.80;52.90;;;;;;5072950;28;21347;-70
2022/01/16 14:53:00;;;;;;;;;;;20.80;52.80;;;;;;5074878;28;19920;-70
2022/01/16 14:55:26;;;;;;;;;;;20.80;52.70;;;;;;5069736;28;20422;-69
2022/01/16 14:57:51;;;;;;;;;;;20.90;52.70;;;;;;5070740;28;19916;-70
2022/01/16 15:00:17;;;;;;;;;;;20.90;52.60;;;;;;5073379;28;20301;-70
2022/01/16 15:02:43;;;;;;;;;;;20.90;52.40;;;;;;5074831;28;19920;-69
2022/01/16 15:05:10;;;;;;;;;;;20.90;52.40;;;;;;5074439;28;19997;-68
2022/01/16 15:07:37;;;;;;;;;;;21.00;52.30;;;;;;5074447;28;19920;-68